Time;durP1;ratioP1;P1;durP2;ratioP2;P2;SDS_P1;SDS_P2;PMS_P1;PMS_P2;Temp;Humidity;BMP_temperature;BMP_pressure;BME280_temperature;BME280_humidity;BME280_pressure;Samples;Min_cycle;Max_cycle;Signal;HPM_P1;HPM_P2
2022/06/30 00:01:36;;;;;;;7.45;3.60;;;;;;;;;;4820996;29;20081;-68
2022/06/30 00:04:07;;;;;;;10.13;4.60;;;;;;;;;;4820611;29;20137;-68
2022/06/30 00:06:38;;;;;;;12.68;4.60;;;;;;;;;;4820547;29;20640;-68
2022/06/30 00:09:08;;;;;;;8.32;3.50;;;;;;;;;;4790268;29;20065;-68
2022/06/30 00:11:40;;;;;;;7.97;3.70;;;;;;;;;;4821123;29;20486;-68
2022/06/30 00:14:10;;;;;;;8.38;3.30;;;;;;;;;;4790475;29;20059;-68
2022/06/30 00:16:40;;;;;;;8.80;3.58;;;;;;;;;;4820773;29;20566;-68
2022/06/30 00:19:11;;;;;;;6.95;3.78;;;;;;;;;;4802189;29;20447;-68
2022/06/30 00:21:41;;;;;;;8.77;4.07;;;;;;;;;;4802530;29;20067;-68
2022/06/30 00:24:12;;;;;;;9.00;4.15;;;;;;;;;;4820675;29;20057;-68
2022/06/30 00:26:48;;;;;;;11.93;4.13;;;;;;;;;;4838759;29;20053;-68
2022/06/30 00:29:18;;;;;;;8.75;3.70;;;;;;;;;;4823749;29;20101;-68
2022/06/30 00:31:48;;;;;;;12.02;4.22;;;;;;;;;;4820333;29;20054;-68
2022/06/30 00:34:19;;;;;;;8.85;3.80;;;;;;;;;;4805199;29;20054;-68
2022/06/30 00:36:50;;;;;;;9.23;4.03;;;;;;;;;;4820512;29;20062;-68
2022/06/30 00:39:21;;;;;;;10.90;4.18;;;;;;;;;;4810442;29;20420;-68
2022/06/30 00:41:51;;;;;;;15.93;4.00;;;;;;;;;;4792646;29;20063;-68
2022/06/30 00:44:22;;;;;;;12.35;4.20;;;;;;;;;;4803707;29;20074;-68
2022/06/30 00:46:53;;;;;;;11.68;4.18;;;;;;;;;;4820085;29;20165;-68
2022/06/30 00:49:23;;;;;;;10.07;4.22;;;;;;;;;;4768308;30;20519;-68
2022/06/30 00:51:54;;;;;;;11.60;4.22;;;;;;;;;;4784122;30;20068;-68
2022/06/30 00:54:25;;;;;;;10.63;4.15;;;;;;;;;;4784093;30;20071;-68
2022/06/30 00:56:56;;;;;;;15.15;6.43;;;;;;;;;;4739548;30;20078;-68
2022/06/30 00:59:29;;;;;;;10.68;4.90;;;;;;;;;;4783901;30;20103;-68
2022/06/30 01:02:01;;;;;;;10.60;5.25;;;;;;;;;;4784148;30;20063;-68
2022/06/30 01:04:33;;;;;;;9.43;4.50;;;;;;;;;;4783900;30;20096;-68
2022/06/30 01:07:06;;;;;;;9.55;4.28;;;;;;;;;;4783985;30;20059;-68
2022/06/30 01:12:43;;;;;;;9.88;3.70;;;;;;;;;;4778920;29;20196;-68
2022/06/30 01:15:20;;;;;;;7.45;3.47;;;;;;;;;;4820471;29;20196;-68
2022/06/30 01:17:52;;;;;;;10.70;4.05;;;;;;;;;;4820192;29;20054;-68
2022/06/30 01:20:30;;;;;;;10.07;3.95;;;;;;;;;;4820089;29;20055;-68
2022/06/30 01:23:02;;;;;;;11.95;4.10;;;;;;;;;;4775087;29;20059;-68
2022/06/30 01:25:35;;;;;;;10.57;4.38;;;;;;;;;;4820290;29;20046;-68
2022/06/30 01:28:08;;;;;;;8.45;3.38;;;;;;;;;;4872958;29;20049;-67
2022/06/30 01:30:38;;;;;;;13.98;4.82;;;;;;;;;;4875534;29;20052;-68
2022/06/30 01:33:09;;;;;;;12.18;4.85;;;;;;;;;;4875633;29;20550;-67
2022/06/30 01:35:39;;;;;;;9.25;4.10;;;;;;;;;;4844343;29;20064;-67
2022/06/30 01:38:09;;;;;;;10.25;4.72;;;;;;;;;;4859714;29;20646;-67
2022/06/30 01:40:40;;;;;;;9.60;5.05;;;;;;;;;;4875057;29;20074;-67
2022/06/30 01:43:11;;;;;;;9.32;4.32;;;;;;;;;;4874955;29;20053;-67
2022/06/30 01:45:42;;;;;;;12.40;4.28;;;;;;;;;;4875203;29;20056;-67
2022/06/30 01:48:13;;;;;;;10.43;4.47;;;;;;;;;;4893813;29;20048;-67
2022/06/30 01:50:43;;;;;;;10.75;4.68;;;;;;;;;;4878431;29;20057;-67
2022/06/30 01:53:13;;;;;;;9.57;4.45;;;;;;;;;;4909579;29;20501;-67
2022/06/30 01:55:43;;;;;;;14.07;4.20;;;;;;;;;;4896100;29;20403;-67
2022/06/30 01:58:13;;;;;;;11.13;4.22;;;;;;;;;;4897713;29;20048;-67
2022/06/30 02:00:44;;;;;;;10.63;4.55;;;;;;;;;;4899558;29;20052;-68
2022/06/30 02:03:15;;;;;;;9.15;3.55;;;;;;;;;;4881696;29;20056;-68
2022/06/30 02:05:45;;;;;;;12.18;4.03;;;;;;;;;;4899317;29;20390;-68
2022/06/30 02:08:15;;;;;;;9.23;3.92;;;;;;;;;;4881940;29;20056;-68
2022/06/30 02:10:46;;;;;;;10.55;4.18;;;;;;;;;;4899329;29;20056;-68
2022/06/30 02:13:16;;;;;;;8.75;3.70;;;;;;;;;;4866256;29;20421;-68
2022/06/30 02:15:46;;;;;;;11.48;4.28;;;;;;;;;;4832005;29;20049;-68
2022/06/30 02:18:16;;;;;;;9.80;3.95;;;;;;;;;;4878246;29;20068;-68
2022/06/30 02:20:47;;;;;;;7.35;3.53;;;;;;;;;;4878405;29;20519;-68
2022/06/30 02:23:17;;;;;;;10.25;3.83;;;;;;;;;;4878310;29;20049;-68
2022/06/30 02:25:47;;;;;;;10.75;3.80;;;;;;;;;;4850168;29;20049;-68
2022/06/30 02:28:18;;;;;;;9.25;3.58;;;;;;;;;;4896817;29;20061;-68
2022/06/30 02:30:48;;;;;;;9.40;4.15;;;;;;;;;;4849993;29;20061;-68
2022/06/30 02:33:18;;;;;;;9.57;4.47;;;;;;;;;;4865579;29;20060;-69
2022/06/30 02:35:49;;;;;;;11.50;4.70;;;;;;;;;;4850871;29;20061;-68
2022/06/30 02:38:19;;;;;;;9.90;4.38;;;;;;;;;;4896813;29;20060;-69
2022/06/30 02:40:49;;;;;;;10.32;4.38;;;;;;;;;;4896333;29;20497;-68
2022/06/30 02:43:19;;;;;;;11.82;3.63;;;;;;;;;;4896548;29;20064;-68
2022/06/30 02:45:50;;;;;;;9.65;4.00;;;;;;;;;;4896553;29;20056;-68
2022/06/30 02:48:20;;;;;;;8.43;3.60;;;;;;;;;;4865377;29;20060;-68
2022/06/30 02:50:50;;;;;;;9.13;4.10;;;;;;;;;;4896311;29;20057;-68
2022/06/30 02:53:21;;;;;;;8.60;3.67;;;;;;;;;;4905310;29;20064;-68
2022/06/30 02:55:51;;;;;;;9.40;3.67;;;;;;;;;;4914874;29;20052;-68
2022/06/30 02:58:22;;;;;;;9.15;4.47;;;;;;;;;;4914850;29;20056;-68
2022/06/30 03:00:52;;;;;;;13.02;4.95;;;;;;;;;;4911133;29;20052;-68
2022/06/30 03:03:22;;;;;;;11.30;4.85;;;;;;;;;;4834535;29;20061;-68
2022/06/30 03:05:52;;;;;;;14.38;6.28;;;;;;;;;;4839864;29;20061;-68
2022/06/30 03:08:22;;;;;;;12.93;6.45;;;;;;;;;;4840026;29;20062;-68
2022/06/30 03:10:53;;;;;;;17.55;8.23;;;;;;;;;;4824722;29;20054;-68
2022/06/30 03:13:23;;;;;;;15.02;7.05;;;;;;;;;;4840248;29;20088;-68
2022/06/30 03:15:54;;;;;;;12.18;6.28;;;;;;;;;;4858213;29;20053;-68
2022/06/30 03:18:25;;;;;;;13.13;6.45;;;;;;;;;;4858443;29;20053;-68
2022/06/30 03:20:56;;;;;;;12.98;6.65;;;;;;;;;;4858534;29;20403;-68
2022/06/30 03:23:26;;;;;;;15.50;7.43;;;;;;;;;;4827740;29;20058;-68
2022/06/30 03:25:56;;;;;;;16.70;6.65;;;;;;;;;;4857438;29;20494;-68
2022/06/30 03:28:27;;;;;;;10.82;5.15;;;;;;;;;;4858455;29;20061;-67
2022/06/30 03:30:58;;;;;;;14.70;5.03;;;;;;;;;;4857769;29;20132;-68
2022/06/30 03:33:28;;;;;;;12.10;5.05;;;;;;;;;;4858284;29;20068;-68
2022/06/30 03:35:58;;;;;;;12.75;5.38;;;;;;;;;;4867292;29;20068;-69
2022/06/30 03:38:29;;;;;;;9.73;4.57;;;;;;;;;;4885847;29;20056;-69
2022/06/30 03:40:59;;;;;;;10.77;4.50;;;;;;;;;;4895443;29;20108;-69
2022/06/30 03:43:29;;;;;;;9.30;4.05;;;;;;;;;;4880131;29;20068;-69
2022/06/30 03:46:00;;;;;;;9.13;4.25;;;;;;;;;;4880023;29;20049;-69
2022/06/30 03:48:30;;;;;;;9.05;4.35;;;;;;;;;;4849119;29;20144;-69
2022/06/30 03:51:01;;;;;;;7.90;3.72;;;;;;;;;;4895216;29;20053;-68
2022/06/30 03:53:31;;;;;;;8.63;4.22;;;;;;;;;;4876443;29;20064;-68
2022/06/30 03:56:02;;;;;;;7.28;3.65;;;;;;;;;;4861223;29;20056;-69
2022/06/30 03:58:32;;;;;;;8.90;3.78;;;;;;;;;;4821201;29;20062;-68
2022/06/30 04:01:03;;;;;;;9.43;4.55;;;;;;;;;;4806557;29;20068;-68
2022/06/30 04:03:33;;;;;;;9.70;4.32;;;;;;;;;;4806301;29;20172;-68
2022/06/30 04:06:03;;;;;;;10.43;4.65;;;;;;;;;;4776259;29;20156;-68
2022/06/30 04:08:33;;;;;;;8.70;4.20;;;;;;;;;;4821220;29;20050;-68
2022/06/30 04:11:03;;;;;;;8.13;3.85;;;;;;;;;;4821011;29;20458;-68
2022/06/30 04:13:34;;;;;;;7.95;3.75;;;;;;;;;;4821244;29;20042;-68
2022/06/30 04:16:05;;;;;;;6.18;3.10;;;;;;;;;;4790859;29;20062;-68
2022/06/30 04:18:40;;;;;;;9.77;3.53;;;;;;;;;;4821170;29;20055;-68
2022/06/30 04:21:11;;;;;;;9.75;3.25;;;;;;;;;;4820350;29;20058;-68
2022/06/30 04:23:43;;;;;;;7.97;3.50;;;;;;;;;;4802440;29;20061;-68
2022/06/30 04:26:14;;;;;;;8.02;3.17;;;;;;;;;;4802698;29;20051;-68
2022/06/30 04:28:44;;;;;;;9.38;3.80;;;;;;;;;;4754757;30;20512;-68
2022/06/30 04:34:03;;;;;;;9.55;3.95;;;;;;;;;;4820761;29;20050;-68
2022/06/30 04:36:33;;;;;;;8.07;3.58;;;;;;;;;;4763196;29;20062;-68
2022/06/30 04:39:03;;;;;;;9.45;4.40;;;;;;;;;;4820869;29;20066;-68
2022/06/30 04:41:33;;;;;;;8.45;3.72;;;;;;;;;;4820649;29;20062;-68
2022/06/30 04:44:05;;;;;;;8.73;3.58;;;;;;;;;;4820778;29;20065;-68
2022/06/30 04:46:36;;;;;;;12.50;4.00;;;;;;;;;;4790415;29;20058;-69
2022/06/30 04:49:07;;;;;;;9.63;3.65;;;;;;;;;;4820633;29;20062;-68
2022/06/30 04:51:37;;;;;;;10.23;4.53;;;;;;;;;;4820246;29;20401;-68
2022/06/30 04:54:07;;;;;;;7.28;3.67;;;;;;;;;;4805517;29;20419;-68
2022/06/30 04:56:38;;;;;;;8.77;3.55;;;;;;;;;;4820436;29;20058;-68
2022/06/30 04:59:08;;;;;;;11.43;4.13;;;;;;;;;;4820626;29;20057;-68
2022/06/30 05:01:39;;;;;;;12.27;4.43;;;;;;;;;;4813151;29;20551;-68
2022/06/30 05:04:09;;;;;;;10.27;4.15;;;;;;;;;;4820284;29;20070;-68
2022/06/30 05:06:39;;;;;;;9.23;4.00;;;;;;;;;;4834721;29;20569;-68
2022/06/30 05:09:08;;;;;;;9.70;4.78;;;;;;;;;;4894114;29;20613;-68
2022/06/30 05:11:40;;;;;;;8.77;4.20;;;;;;;;;;4893773;29;20059;-68
2022/06/30 05:14:10;;;;;;;10.68;4.50;;;;;;;;;;4894045;29;20060;-68
2022/06/30 05:16:40;;;;;;;9.82;4.20;;;;;;;;;;4894273;29;20064;-68
2022/06/30 05:19:10;;;;;;;9.55;4.88;;;;;;;;;;4856614;29;20049;-68
2022/06/30 05:21:40;;;;;;;11.38;4.45;;;;;;;;;;4856829;29;20506;-68
2022/06/30 05:26:59;;;;;;;8.77;4.07;;;;;;;;;;4856620;29;20069;-69
2022/06/30 05:29:29;;;;;;;8.05;3.97;;;;;;;;;;4837763;29;20198;-69
2022/06/30 05:32:00;;;;;;;10.52;4.68;;;;;;;;;;4839433;29;20462;-68
2022/06/30 05:34:31;;;;;;;9.57;4.28;;;;;;;;;;4842035;29;20074;-69
2022/06/30 05:37:01;;;;;;;11.90;5.07;;;;;;;;;;4823387;29;20062;-68
2022/06/30 05:39:32;;;;;;;13.88;5.03;;;;;;;;;;4802112;29;20059;-68
2022/06/30 05:42:03;;;;;;;14.30;5.45;;;;;;;;;;4787196;30;20508;-68
2022/06/30 05:44:34;;;;;;;16.08;5.18;;;;;;;;;;4787277;30;20070;-68
2022/06/30 05:47:04;;;;;;;14.90;4.93;;;;;;;;;;4787105;30;20066;-68
2022/06/30 05:49:37;;;;;;;10.38;4.72;;;;;;;;;;4809353;29;20059;-68
2022/06/30 05:52:07;;;;;;;10.52;4.40;;;;;;;;;;4807891;29;20054;-68
2022/06/30 05:54:37;;;;;;;11.30;5.03;;;;;;;;;;4823325;29;20066;-68
2022/06/30 05:57:08;;;;;;;8.93;3.75;;;;;;;;;;4819962;29;20069;-68
2022/06/30 05:59:38;;;;;;;9.57;4.35;;;;;;;;;;4859857;29;20097;-68
2022/06/30 06:02:08;;;;;;;10.13;4.47;;;;;;;;;;4860047;29;20068;-68
2022/06/30 06:04:39;;;;;;;8.18;3.92;;;;;;;;;;4859755;29;20069;-68
2022/06/30 06:07:09;;;;;;;10.00;3.78;;;;;;;;;;4859656;29;20061;-69
2022/06/30 06:09:39;;;;;;;7.70;3.67;;;;;;;;;;4859864;29;20069;-68
2022/06/30 06:12:10;;;;;;;8.43;3.72;;;;;;;;;;4859861;29;20053;-69
2022/06/30 06:14:40;;;;;;;10.30;3.60;;;;;;;;;;4857337;29;20076;-68
2022/06/30 06:17:10;;;;;;;12.80;4.32;;;;;;;;;;4897105;29;20060;-68
2022/06/30 06:19:41;;;;;;;11.15;5.05;;;;;;;;;;4896914;29;20681;-68
2022/06/30 06:22:12;;;;;;;12.38;5.53;;;;;;;;;;4897037;29;20176;-68
2022/06/30 06:24:42;;;;;;;12.50;5.50;;;;;;;;;;4881444;29;20072;-68
2022/06/30 06:27:12;;;;;;;14.10;6.18;;;;;;;;;;4878087;29;20556;-68
2022/06/30 06:29:42;;;;;;;13.10;5.40;;;;;;;;;;4846979;29;20061;-68
2022/06/30 06:32:12;;;;;;;10.77;5.63;;;;;;;;;;4877859;29;20453;-68
2022/06/30 06:34:43;;;;;;;12.75;5.93;;;;;;;;;;4877947;29;20065;-68
2022/06/30 06:37:13;;;;;;;15.02;6.00;;;;;;;;;;4846982;29;20414;-68
2022/06/30 06:39:43;;;;;;;14.40;5.90;;;;;;;;;;4877710;29;20065;-68
2022/06/30 06:42:16;;;;;;;13.18;7.22;;;;;;;;;;4847056;29;20065;-68
2022/06/30 06:44:48;;;;;;;18.40;7.30;;;;;;;;;;4825490;29;20050;-68
2022/06/30 06:47:19;;;;;;;13.57;6.82;;;;;;;;;;4841104;29;20069;-68
2022/06/30 06:49:49;;;;;;;16.00;7.18;;;;;;;;;;4807232;29;20061;-68
2022/06/30 06:52:19;;;;;;;13.90;6.55;;;;;;;;;;4822286;29;20062;-68
2022/06/30 06:54:50;;;;;;;16.33;6.95;;;;;;;;;;4822263;29;20103;-68
2022/06/30 06:57:20;;;;;;;17.90;6.15;;;;;;;;;;4822069;29;20058;-68
2022/06/30 06:59:50;;;;;;;15.43;5.50;;;;;;;;;;4822060;29;20046;-68
2022/06/30 07:02:21;;;;;;;14.02;6.05;;;;;;;;;;4822304;29;20067;-68
2022/06/30 07:04:51;;;;;;;14.82;6.80;;;;;;;;;;4840551;29;20433;-68
2022/06/30 07:07:21;;;;;;;17.17;8.23;;;;;;;;;;4794880;29;20058;-68
2022/06/30 07:09:52;;;;;;;18.20;7.63;;;;;;;;;;4840251;29;20061;-68
2022/06/30 07:12:22;;;;;;;20.58;7.70;;;;;;;;;;4840242;29;20050;-69
2022/06/30 07:14:56;;;;;;;16.02;6.57;;;;;;;;;;4840150;29;20058;-68
2022/06/30 07:17:26;;;;;;;12.18;5.80;;;;;;;;;;4840396;29;20054;-69
2022/06/30 07:19:56;;;;;;;14.15;6.18;;;;;;;;;;4840043;29;20477;-68
2022/06/30 07:22:27;;;;;;;18.98;7.68;;;;;;;;;;4858943;29;20061;-68
2022/06/30 07:24:57;;;;;;;17.75;7.72;;;;;;;;;;4846095;29;20061;-69
2022/06/30 07:27:27;;;;;;;16.90;7.05;;;;;;;;;;4818577;29;20050;-69
2022/06/30 07:29:58;;;;;;;18.17;8.23;;;;;;;;;;4794526;29;20069;-69
2022/06/30 07:32:28;;;;;;;16.15;7.20;;;;;;;;;;4839823;29;20062;-68
2022/06/30 07:34:58;;;;;;;17.67;8.32;;;;;;;;;;4794414;29;20058;-68
2022/06/30 07:37:29;;;;;;;18.23;7.13;;;;;;;;;;4825000;29;20062;-68
2022/06/30 07:39:59;;;;;;;17.65;7.22;;;;;;;;;;4839727;29;20537;-69
2022/06/30 07:42:36;;;;;;;10.10;4.40;;;;;;;;;;4809646;29;20062;-68
2022/06/30 07:45:07;;;;;;;7.40;3.05;;;;;;;;;;4822655;29;20054;-68
2022/06/30 07:47:43;;;;;;;16.50;4.63;;;;;;;;;;4839804;29;20070;-69
2022/06/30 07:50:14;;;;;;;11.40;4.53;;;;;;;;;;4839575;29;20172;-69
2022/06/30 07:52:45;;;;;;;14.32;5.72;;;;;;;;;;4824680;29;20168;-69
2022/06/30 07:55:16;;;;;;;13.60;5.78;;;;;;;;;;4838618;29;20058;-69
2022/06/30 07:57:47;;;;;;;12.00;5.53;;;;;;;;;;4824782;29;20069;-69
2022/06/30 08:00:24;;;;;;;13.50;5.97;;;;;;;;;;4839483;29;20522;-68
2022/06/30 08:02:54;;;;;;;16.00;6.95;;;;;;;;;;4839362;29;20069;-69
2022/06/30 08:05:24;;;;;;;16.23;7.40;;;;;;;;;;4850745;29;20541;-69
2022/06/30 08:07:54;;;;;;;15.48;6.13;;;;;;;;;;4842771;29;20576;-69
2022/06/30 08:10:24;;;;;;;12.80;5.53;;;;;;;;;;4838592;29;20069;-68
2022/06/30 08:12:55;;;;;;;11.25;4.68;;;;;;;;;;4839256;29;20058;-69
2022/06/30 08:15:26;;;;;;;16.65;5.30;;;;;;;;;;4839139;29;20074;-69
2022/06/30 08:18:00;;;;;;;13.65;5.00;;;;;;;;;;4838941;29;20054;-69
2022/06/30 08:20:31;;;;;;;22.42;4.10;;;;;;;;;;4808782;29;20054;-68
2022/06/30 08:23:02;;;;;;;17.33;4.13;;;;;;;;;;4827793;29;20061;-69
2022/06/30 08:25:32;;;;;;;14.73;4.32;;;;;;;;;;4821018;29;20058;-68
2022/06/30 08:28:05;;;;;;;7.97;3.05;;;;;;;;;;4820841;29;20423;-68
2022/06/30 08:30:36;;;;;;;;;;;;;;;;;;4821448;29;20069;-68
2022/06/30 08:33:06;;;;;;;7.20;1.90;;;;;;;;;;4820716;29;19925;-69
2022/06/30 08:35:36;;;;;;;10.75;2.50;;;;;;;;;;4820661;29;20059;-68
2022/06/30 08:38:28;;;;;;;22.05;3.10;;;;;;;;;;4821219;29;20069;-68
2022/06/30 08:43:47;;;;;;;27.80;3.30;;;;;;;;;;4820736;29;20424;-68
2022/06/30 08:46:20;;;;;;;13.15;3.05;;;;;;;;;;4802199;29;20062;-68
2022/06/30 08:48:51;;;;;;;8.20;3.20;;;;;;;;;;4817473;29;20062;-68
2022/06/30 08:51:22;;;;;;;7.15;3.28;;;;;;;;;;4820565;29;20133;-68
2022/06/30 08:54:00;;;;;;;12.85;3.22;;;;;;;;;;4775679;29;20058;-68
2022/06/30 08:56:34;;;;;;;12.55;3.30;;;;;;;;;;4839971;29;20049;-68
2022/06/30 08:59:05;;;;;;;15.05;3.90;;;;;;;;;;4841957;29;20072;-69
2022/06/30 09:01:35;;;;;;;9.15;3.38;;;;;;;;;;4857027;29;20052;-68
2022/06/30 09:04:07;;;;;;;12.18;3.53;;;;;;;;;;4856774;29;20062;-68
2022/06/30 09:06:37;;;;;;;9.30;3.38;;;;;;;;;;4826025;29;20057;-68
2022/06/30 09:09:08;;;;;;;11.23;3.67;;;;;;;;;;4856781;29;20056;-68
2022/06/30 09:11:50;;;;;;;9.13;3.50;;;;;;;;;;4856907;29;20061;-68
2022/06/30 09:14:37;;;;;;;8.70;3.63;;;;;;;;;;4871442;29;20065;-68
2022/06/30 09:17:22;;;;;;;9.82;3.72;;;;;;;;;;4856625;29;20068;-68
2022/06/30 09:20:00;;;;;;;11.15;3.67;;;;;;;;;;4856829;29;20053;-68
2022/06/30 09:22:34;;;;;;;15.65;3.13;;;;;;;;;;4856549;29;20069;-68
2022/06/30 09:25:18;;;;;;;9.80;3.80;;;;;;;;;;4876748;29;20417;-68
2022/06/30 09:27:48;;;;;;;11.65;3.45;;;;;;;;;;4894847;29;20047;-69
2022/06/30 09:30:21;;;;;;;9.93;3.90;;;;;;;;;;4875158;29;20056;-69
2022/06/30 09:33:06;;;;;;;11.13;3.72;;;;;;;;;;4875000;29;20061;-69
2022/06/30 09:35:38;;;;;;;8.52;3.78;;;;;;;;;;4844284;29;20201;-69
2022/06/30 09:38:13;;;;;;;12.57;3.42;;;;;;;;;;4875375;29;20075;-69
2022/06/30 09:41:04;;;;;;;13.57;3.72;;;;;;;;;;4875269;29;20041;-68
2022/06/30 09:43:39;;;;;;;14.35;3.83;;;;;;;;;;4875344;29;20150;-69
2022/06/30 09:46:09;;;;;;;10.60;4.18;;;;;;;;;;4822453;29;20046;-68
2022/06/30 09:48:41;;;;;;;14.98;4.45;;;;;;;;;;4823217;29;20098;-69
2022/06/30 09:51:12;;;;;;;20.40;4.35;;;;;;;;;;4837722;29;20058;-68
2022/06/30 09:53:43;;;;;;;9.38;4.10;;;;;;;;;;4794306;29;20054;-68
2022/06/30 09:56:16;;;;;;;11.93;3.75;;;;;;;;;;4838066;29;20061;-68
2022/06/30 09:58:47;;;;;;;9.60;4.10;;;;;;;;;;4837999;29;20065;-68
2022/06/30 10:01:17;;;;;;;15.68;4.65;;;;;;;;;;4837972;29;20102;-68
2022/06/30 10:03:59;;;;;;;10.00;4.35;;;;;;;;;;4838433;29;20054;-69
2022/06/30 10:06:29;;;;;;;11.18;4.15;;;;;;;;;;4838281;29;20066;-69
2022/06/30 10:08:59;;;;;;;12.45;3.75;;;;;;;;;;4855316;29;20064;-68
2022/06/30 10:11:30;;;;;;;10.00;4.25;;;;;;;;;;4856276;29;20057;-68
2022/06/30 10:14:01;;;;;;;9.63;4.05;;;;;;;;;;4856435;29;20046;-68
2022/06/30 10:16:31;;;;;;;7.57;3.35;;;;;;;;;;4810623;29;20526;-69
2022/06/30 10:19:02;;;;;;;12.88;3.92;;;;;;;;;;4857777;29;20053;-69
2022/06/30 10:21:33;;;;;;;7.82;3.22;;;;;;;;;;4859454;29;20511;-69
2022/06/30 10:24:05;;;;;;;7.25;3.10;;;;;;;;;;4884089;29;20425;-69
2022/06/30 10:29:26;;;;;;;6.88;3.20;;;;;;;;;;4881403;29;20063;-69
2022/06/30 10:32:06;;;;;;;12.40;3.17;;;;;;;;;;4898747;29;20045;-69
2022/06/30 10:34:43;;;;;;;16.33;3.65;;;;;;;;;;4899007;29;20629;-69
2022/06/30 10:37:24;;;;;;;14.20;3.30;;;;;;;;;;4865742;29;20061;-69
2022/06/30 10:40:02;;;;;;;10.32;4.22;;;;;;;;;;4899017;29;20049;-69
2022/06/30 10:42:45;;;;;;;16.08;4.40;;;;;;;;;;4899031;29;20070;-69
2022/06/30 10:45:53;;;;;;;11.40;4.28;;;;;;;;;;4899007;29;20045;-69
2022/06/30 10:48:27;;;;;;;10.23;4.53;;;;;;;;;;4822073;29;20062;-69
2022/06/30 10:50:57;;;;;;;12.70;4.72;;;;;;;;;;4808099;29;20050;-69
2022/06/30 10:53:37;;;;;;;14.02;5.72;;;;;;;;;;4777026;29;20047;-69
2022/06/30 10:56:06;;;;;;;;;;;;;;;;;;4822933;29;20056;-69
2022/06/30 10:58:36;;;;;;;17.27;5.03;;;;;;;;;;4822602;29;19925;-69
2022/06/30 11:01:11;;;;;;;12.52;5.00;;;;;;;;;;4807442;29;20046;-69
2022/06/30 11:03:43;;;;;;;11.10;5.15;;;;;;;;;;4803568;29;20134;-69
2022/06/30 11:06:16;;;;;;;12.73;5.03;;;;;;;;;;4773912;29;20075;-69
2022/06/30 11:08:57;;;;;;;;;;;;;;;;;;4804424;29;20471;-69
2022/06/30 11:11:28;;;;;;;8.63;4.15;;;;;;;;;;4803890;29;20416;-69
2022/06/30 11:14:04;;;;;;;9.23;4.10;;;;;;;;;;4803774;29;20054;-69
2022/06/30 11:16:36;;;;;;;9.68;4.90;;;;;;;;;;4803849;29;20420;-69
2022/06/30 11:19:22;;;;;;;14.98;5.75;;;;;;;;;;4803661;29;20058;-69
2022/06/30 11:21:54;;;;;;;12.48;6.00;;;;;;;;;;4803703;29;20059;-69
2022/06/30 11:24:27;;;;;;;12.02;5.88;;;;;;;;;;4784756;29;20525;-69
2022/06/30 11:29:47;;;;;;;8.57;3.90;;;;;;;;;;4845641;29;20057;-69
2022/06/30 11:32:23;;;;;;;8.20;4.10;;;;;;;;;;4830673;29;20493;-69
2022/06/30 11:34:56;;;;;;;8.63;3.90;;;;;;;;;;4830859;29;20053;-69
2022/06/30 11:37:29;;;;;;;8.85;4.25;;;;;;;;;;4876821;29;20049;-69
2022/06/30 11:39:59;;;;;;;;;;;;;;;;;;4831453;29;20068;-69
2022/06/30 11:42:30;;;;;;;9.68;3.28;;;;;;;;;;4897507;29;20328;-69
2022/06/30 11:45:01;;;;;;;9.25;3.67;;;;;;;;;;4865193;29;20433;-69
2022/06/30 11:47:30;;;;;;;8.75;3.83;;;;;;;;;;4897702;29;20049;-68
2022/06/30 11:50:01;;;;;;;8.73;4.15;;;;;;;;;;4897857;29;20055;-69
2022/06/30 11:52:41;;;;;;;8.07;3.70;;;;;;;;;;4897507;29;20044;-68
2022/06/30 11:55:14;;;;;;;;;;;;;;;;;;4897935;29;20048;-68
2022/06/30 11:57:47;;;;;;;11.95;4.20;;;;;;;;;;4897638;29;20272;-68
2022/06/30 12:00:27;;;;;;;7.82;3.67;;;;;;;;;;4897445;29;20040;-68
2022/06/30 12:02:58;;;;;;;11.23;4.13;;;;;;;;;;4897301;29;20040;-68
2022/06/30 12:05:29;;;;;;;10.50;4.95;;;;;;;;;;4897286;29;20063;-68
2022/06/30 12:08:00;;;;;;;11.55;5.60;;;;;;;;;;4897270;29;20397;-67
2022/06/30 12:10:30;;;;;;;10.43;4.50;;;;;;;;;;4897465;29;20041;-68
2022/06/30 12:13:03;;;;;;;10.20;4.97;;;;;;;;;;4896923;29;20044;-69
2022/06/30 12:15:36;;;;;;;13.70;6.57;;;;;;;;;;4897233;29;20048;-69
2022/06/30 12:18:06;;;;;;;11.38;5.07;;;;;;;;;;4880027;29;20056;-68
2022/06/30 12:20:38;;;;;;;11.43;5.25;;;;;;;;;;4897059;29;20500;-69
2022/06/30 12:23:08;;;;;;;12.35;6.03;;;;;;;;;;4842131;29;20056;-69
2022/06/30 12:25:39;;;;;;;15.57;5.63;;;;;;;;;;4857504;29;20076;-69
2022/06/30 12:28:09;;;;;;;12.75;5.60;;;;;;;;;;4857449;29;20068;-69
2022/06/30 12:30:39;;;;;;;16.27;5.38;;;;;;;;;;4826740;29;20507;-69
2022/06/30 12:33:10;;;;;;;17.25;5.88;;;;;;;;;;4801964;29;20524;-69
2022/06/30 12:35:40;;;;;;;18.33;7.03;;;;;;;;;;4772640;29;20059;-69
2022/06/30 12:38:18;;;;;;;13.02;4.63;;;;;;;;;;4784241;29;20059;-68
2022/06/30 12:40:49;;;;;;;16.65;6.80;;;;;;;;;;4741318;30;20066;-69
2022/06/30 12:43:20;;;;;;;20.65;8.40;;;;;;;;;;4784269;29;20055;-69
2022/06/30 12:46:01;;;;;;;27.20;8.52;;;;;;;;;;4784667;29;20063;-69
2022/06/30 12:48:43;;;;;;;18.70;6.53;;;;;;;;;;4784509;29;20419;-69
2022/06/30 12:51:35;;;;;;;17.60;6.90;;;;;;;;;;4784481;29;20055;-69
2022/06/30 12:54:09;;;;;;;14.27;5.95;;;;;;;;;;4696183;30;20073;-69
2022/06/30 12:56:41;;;;;;;17.52;8.35;;;;;;;;;;4681479;30;20057;-69
2022/06/30 12:59:16;;;;;;;21.85;9.18;;;;;;;;;;4696333;30;20066;-69
2022/06/30 13:01:59;;;;;;;22.80;9.93;;;;;;;;;;4743482;30;20068;-69
2022/06/30 13:04:32;;;;;;;12.68;5.45;;;;;;;;;;4748475;30;20787;-69
2022/06/30 13:07:03;;;;;;;15.15;4.72;;;;;;;;;;4748369;30;20461;-69
2022/06/30 13:09:34;;;;;;;17.52;7.80;;;;;;;;;;4733777;30;20052;-69
2022/06/30 13:12:05;;;;;;;11.68;4.80;;;;;;;;;;4751618;30;20082;-69
2022/06/30 13:14:36;;;;;;;7.00;2.60;;;;;;;;;;4707849;30;20063;-69
2022/06/30 13:17:07;;;;;;;19.98;6.97;;;;;;;;;;4783707;30;20459;-69
2022/06/30 13:19:39;;;;;;;14.63;5.53;;;;;;;;;;4766399;30;20060;-70
2022/06/30 13:22:09;;;;;;;39.45;12.77;;;;;;;;;;4736500;30;20060;-69
2022/06/30 13:24:39;;;;;;;35.92;10.65;;;;;;;;;;4766097;30;20079;-69
2022/06/30 13:27:12;;;;;;;75.57;24.63;;;;;;;;;;4712911;30;20064;-69
2022/06/30 13:29:43;;;;;;;23.20;8.98;;;;;;;;;;4727412;30;20446;-69
2022/06/30 13:32:13;;;;;;;35.58;12.63;;;;;;;;;;4758537;30;20059;-70
2022/06/30 13:34:43;;;;;;;50.53;20.00;;;;;;;;;;4765847;30;20416;-70
2022/06/30 13:37:13;;;;;;;58.35;23.77;;;;;;;;;;4783506;29;20055;-70
2022/06/30 13:39:44;;;;;;;32.17;12.45;;;;;;;;;;4765834;30;20555;-70
2022/06/30 13:42:14;;;;;;;33.40;12.25;;;;;;;;;;4765838;30;20202;-70
2022/06/30 13:44:44;;;;;;;116.57;38.33;;;;;;;;;;4765817;30;20064;-69
2022/06/30 13:47:14;;;;;;;79.45;24.15;;;;;;;;;;4750797;30;20056;-70
2022/06/30 13:49:45;;;;;;;21.55;7.57;;;;;;;;;;4747789;30;20057;-70
2022/06/30 13:52:15;;;;;;;27.70;12.05;;;;;;;;;;4747926;30;20600;-70
2022/06/30 13:54:46;;;;;;;21.27;7.97;;;;;;;;;;4741574;30;20069;-70
2022/06/30 13:57:16;;;;;;;21.92;8.05;;;;;;;;;;4761714;29;20063;-70
2022/06/30 13:59:48;;;;;;;17.60;6.85;;;;;;;;;;4787087;29;20055;-71
2022/06/30 14:02:18;;;;;;;11.20;5.80;;;;;;;;;;4770580;29;20055;-72
2022/06/30 14:04:49;;;;;;;17.00;7.15;;;;;;;;;;4781552;29;20055;-71
2022/06/30 14:07:20;;;;;;;22.15;7.07;;;;;;;;;;4786482;29;20059;-71
2022/06/30 14:09:52;;;;;;;22.02;9.25;;;;;;;;;;4804647;29;20093;-71
2022/06/30 14:12:23;;;;;;;26.80;10.18;;;;;;;;;;4774921;29;20059;-71
2022/06/30 14:14:53;;;;;;;46.33;17.95;;;;;;;;;;4792898;29;20054;-70
2022/06/30 14:17:24;;;;;;;52.55;18.50;;;;;;;;;;4851132;29;20445;-71
2022/06/30 14:19:54;;;;;;;24.02;9.23;;;;;;;;;;4863180;29;20053;-71
2022/06/30 14:22:24;;;;;;;25.40;9.98;;;;;;;;;;4859455;29;20054;-72
2022/06/30 14:24:55;;;;;;;26.13;9.93;;;;;;;;;;4859585;29;20060;-71
2022/06/30 14:27:25;;;;;;;48.30;15.30;;;;;;;;;;4878296;29;20053;-71
2022/06/30 14:29:55;;;;;;;51.03;14.48;;;;;;;;;;4865696;29;20088;-70
2022/06/30 14:32:25;;;;;;;22.23;8.30;;;;;;;;;;4896577;29;20056;-72
2022/06/30 14:34:56;;;;;;;41.03;15.63;;;;;;;;;;4896607;29;20052;-70
2022/06/30 14:37:27;;;;;;;46.47;14.23;;;;;;;;;;4896625;29;20373;-71
2022/06/30 14:39:57;;;;;;;26.23;10.20;;;;;;;;;;4877526;29;20065;-71
2022/06/30 14:42:43;;;;;;;24.15;9.70;;;;;;;;;;4877742;29;20052;-71
2022/06/30 14:45:19;;;;;;;19.25;7.20;;;;;;;;;;4877766;29;20068;-71
2022/06/30 14:47:52;;;;;;;21.17;9.38;;;;;;;;;;4828724;29;20160;-71
2022/06/30 14:50:23;;;;;;;;;;;;;;;;;;4822830;29;20479;-71
2022/06/30 14:52:53;;;;;;;13.30;6.05;;;;;;;;;;4822263;29;19969;-72
2022/06/30 14:55:24;;;;;;;17.83;8.00;;;;;;;;;;4822341;29;20050;-71
2022/06/30 14:57:56;;;;;;;24.55;9.02;;;;;;;;;;4822053;29;20062;-72
2022/06/30 15:00:26;;;;;;;25.92;9.90;;;;;;;;;;4822247;29;20077;-71
2022/06/30 15:02:57;;;;;;;18.77;7.78;;;;;;;;;;4822070;29;20063;-71
2022/06/30 15:05:30;;;;;;;30.35;11.13;;;;;;;;;;4821709;29;20074;-70
2022/06/30 15:08:00;;;;;;;;;;;;;;;;;;4822504;29;20065;-71
2022/06/30 15:10:29;;;;;;;28.35;11.90;;;;;;;;;;4822139;29;20304;-70
2022/06/30 15:13:00;;;;;;;12.43;4.72;;;;;;;;;;4821893;29;20065;-72
2022/06/30 15:15:31;;;;;;;14.88;6.70;;;;;;;;;;4822038;29;20053;-70
2022/06/30 15:18:01;;;;;;;19.30;7.82;;;;;;;;;;4847024;29;20054;-70
2022/06/30 15:20:31;;;;;;;11.80;4.20;;;;;;;;;;4858783;29;20065;-71